Terminal Aerodrome Forecast
Issued by NWS

Current Version | Previous Version | Text Only | Print | Product List | Glossary On
Versions: 1 2 3 4 5 6 7 8 9 10 11 12
209
FTUS46 KHNX 081140
TAFBFL
TAF
KBFL 081140Z 0812/0912 VRB04KT 4SM -RA BR OVC050
     FM081700 VRB05KT 5SM HZ OVC050
     FM090200 05005KT 4SM BR VCSH OVC020=

USA.gov is the U.S. government's official web portal to all federal, state and local government web resources and services.